sensor_id;sensor_type;location;lat;lon;timestamp;pressure;altitude;pressure_sealevel;temperature;humidity
36598;BME280;22607;49.550;11.940;2022-09-01T00:01:51;97224.75;;;17.25;100.00
36598;BME280;22607;49.550;11.940;2022-09-01T00:04:23;97226.22;;;17.21;100.00
36598;BME280;22607;49.550;11.940;2022-09-01T00:06:53;97226.41;;;17.33;100.00
36598;BME280;22607;49.550;11.940;2022-09-01T00:09:21;97223.97;;;17.25;100.00
36598;BME280;22607;49.550;11.940;2022-09-01T00:11:51;97221.72;;;17.28;100.00
36598;BME280;22607;49.550;11.940;2022-09-01T00:14:22;97222.09;;;17.25;100.00
36598;BME280;22607;49.550;11.940;2022-09-01T00:17:03;97226.81;;;17.23;100.00
36598;BME280;22607;49.550;11.940;2022-09-01T00:19:30;97223.78;;;17.13;100.00
36598;BME280;22607;49.550;11.940;2022-09-01T00:21:59;97223.56;;;17.28;100.00
36598;BME280;22607;49.550;11.940;2022-09-01T00:24:26;97219.06;;;17.28;100.00
36598;BME280;22607;49.550;11.940;2022-09-01T00:26:54;97221.13;;;17.26;100.00
36598;BME280;22607;49.550;11.940;2022-09-01T00:29:23;97217.44;;;17.27;100.00
36598;BME280;22607;49.550;11.940;2022-09-01T00:31:51;97213.75;;;17.28;100.00
36598;BME280;22607;49.550;11.940;2022-09-01T00:34:18;97215.81;;;17.13;100.00
36598;BME280;22607;49.550;11.940;2022-09-01T00:36:45;97219.06;;;17.15;100.00
36598;BME280;22607;49.550;11.940;2022-09-01T00:39:14;97214.78;;;17.14;100.00
36598;BME280;22607;49.550;11.940;2022-09-01T00:41:41;97213.16;;;17.13;100.00
36598;BME280;22607;49.550;11.940;2022-09-01T00:44:16;97215.78;;;16.99;100.00
36598;BME280;22607;49.550;11.940;2022-09-01T00:46:49;97210.88;;;17.03;100.00
36598;BME280;22607;49.550;11.940;2022-09-01T00:49:30;97211.91;;;17.02;100.00
36598;BME280;22607;49.550;11.940;2022-09-01T00:52:06;97213.72;;;17.01;100.00
36598;BME280;22607;49.550;11.940;2022-09-01T00:54:37;97211.50;;;16.98;100.00
36598;BME280;22607;49.550;11.940;2022-09-01T00:57:07;97214.56;;;17.02;100.00
36598;BME280;22607;49.550;11.940;2022-09-01T00:59:39;97216.19;;;17.03;100.00
36598;BME280;22607;49.550;11.940;2022-09-01T01:02:08;97211.91;;;16.95;100.00
36598;BME280;22607;49.550;11.940;2022-09-01T01:04:37;97215.16;;;16.97;100.00
36598;BME280;22607;49.550;11.940;2022-09-01T01:07:03;97214.53;;;16.95;100.00
36598;BME280;22607;49.550;11.940;2022-09-01T01:09:33;97215.78;;;16.99;100.00
36598;BME280;22607;49.550;11.940;2022-09-01T01:12:02;97215.16;;;16.97;100.00
36598;BME280;22607;49.550;11.940;2022-09-01T01:14:30;97210.88;;;16.96;100.00
36598;BME280;22607;49.550;11.940;2022-09-01T01:16:59;97211.50;;;16.98;100.00
36598;BME280;22607;49.550;11.940;2022-09-01T01:19:49;97211.50;;;16.98;100.00
36598;BME280;22607;49.550;11.940;2022-09-01T01:25:55;97212.53;;;16.90;100.00
36598;BME280;22607;49.550;11.940;2022-09-01T01:28:31;97208.66;;;16.93;100.00
36598;BME280;22607;49.550;11.940;2022-09-01T01:31:04;97205.16;;;16.92;100.00
36598;BME280;22607;49.550;11.940;2022-09-01T01:33:41;97206.78;;;17.00;100.00
36598;BME280;22607;49.550;11.940;2022-09-01T01:36:15;97206.19;;;16.98;100.00
36598;BME280;22607;49.550;11.940;2022-09-01T01:38:45;97200.69;;;16.93;100.00
36598;BME280;22607;49.550;11.940;2022-09-01T01:41:14;97208.41;;;17.01;100.00
36598;BME280;22607;49.550;11.940;2022-09-01T01:43:41;97197.00;;;16.94;100.00
36598;BME280;22607;49.550;11.940;2022-09-01T01:46:10;97195.97;;;16.88;100.00
36598;BME280;22607;49.550;11.940;2022-09-01T01:48:39;97200.25;;;16.83;100.00
36598;BME280;22607;49.550;11.940;2022-09-01T01:51:08;97196.59;;;16.84;100.00
36598;BME280;22607;49.550;11.940;2022-09-01T01:53:36;97203.72;;;16.90;100.00
36598;BME280;22607;49.550;11.940;2022-09-01T01:56:03;97202.72;;;16.84;100.00
36598;BME280;22607;49.550;11.940;2022-09-01T01:58:32;97202.69;;;16.77;100.00
36598;BME280;22607;49.550;11.940;2022-09-01T02:00:58;97201.91;;;16.84;100.00
36598;BME280;22607;49.550;11.940;2022-09-01T02:03:30;97213.72;;;16.74;100.00
36598;BME280;22607;49.550;11.940;2022-09-01T02:06:00;97204.34;;;16.72;100.00
36598;BME280;22607;49.550;11.940;2022-09-01T02:08:30;97201.88;;;16.63;100.00
36598;BME280;22607;49.550;11.940;2022-09-01T02:10:56;97207.59;;;16.67;100.00
36598;BME280;22607;49.550;11.940;2022-09-01T02:13:25;97199.44;;;16.69;100.00
36598;BME280;22607;49.550;11.940;2022-09-01T02:16:01;97205.16;;;16.72;100.00
36598;BME280;22607;49.550;11.940;2022-09-01T02:18:32;97202.88;;;16.69;100.00
36598;BME280;22607;49.550;11.940;2022-09-01T02:21:03;97202.28;;;16.67;100.00
36598;BME280;22607;49.550;11.940;2022-09-01T02:23:43;97205.34;;;16.64;100.00
36598;BME280;22607;49.550;11.940;2022-09-01T02:26:10;97202.47;;;16.59;100.00
36598;BME280;22607;49.550;11.940;2022-09-01T02:28:44;97201.06;;;16.63;100.00
36598;BME280;22607;49.550;11.940;2022-09-01T02:31:21;97194.13;;;16.62;100.00
36598;BME280;22607;49.550;11.940;2022-09-01T02:33:49;97203.09;;;16.61;100.00
36598;BME280;22607;49.550;11.940;2022-09-01T02:36:17;97198.59;;;16.54;100.00
36598;BME280;22607;49.550;11.940;2022-09-01T02:38:46;97202.25;;;16.47;100.00
36598;BME280;22607;49.550;11.940;2022-09-01T02:41:22;97200.81;;;16.44;100.00
36598;BME280;22607;49.550;11.940;2022-09-01T02:43:52;97196.94;;;16.40;100.00
36598;BME280;22607;49.550;11.940;2022-09-01T02:46:19;97203.88;;;16.34;100.00
36598;BME280;22607;49.550;11.940;2022-09-01T02:48:50;97199.34;;;16.21;100.00
36598;BME280;22607;49.550;11.940;2022-09-01T02:51:19;97196.09;;;16.19;100.00
36598;BME280;22607;49.550;11.940;2022-09-01T02:53:46;97200.56;;;16.19;100.00
36598;BME280;22607;49.550;11.940;2022-09-01T02:56:20;97198.28;;;16.09;100.00
36598;BME280;22607;49.550;11.940;2022-09-01T02:58:51;97197.56;;;15.93;100.00
36598;BME280;22607;49.550;11.940;2022-09-01T03:01:24;97193.94;;;15.94;100.00
36598;BME280;22607;49.550;11.940;2022-09-01T03:03:55;97191.47;;;15.93;100.00
36598;BME280;22607;49.550;11.940;2022-09-01T03:06:23;97201.59;;;15.82;100.00
36598;BME280;22607;49.550;11.940;2022-09-01T03:08:54;97198.47;;;15.65;100.00
36598;BME280;22607;49.550;11.940;2022-09-01T03:11:21;97191.31;;;15.59;100.00
36598;BME280;22607;49.550;11.940;2022-09-01T03:13:50;97195.00;;;15.58;100.00
36598;BME280;22607;49.550;11.940;2022-09-01T03:16:17;97195.94;;;15.50;100.00
36598;BME280;22607;49.550;11.940;2022-09-01T03:18:44;97188.59;;;15.45;100.00
36598;BME280;22607;49.550;11.940;2022-09-01T03:21:11;97191.38;;;15.37;100.00
36598;BME280;22607;49.550;11.940;2022-09-01T03:23:43;97189.94;;;15.34;100.00
36598;BME280;22607;49.550;11.940;2022-09-01T03:26:12;97189.53;;;15.31;100.00
36598;BME280;22607;49.550;11.940;2022-09-01T03:28:39;97186.66;;;15.26;100.00
36598;BME280;22607;49.550;11.940;2022-09-01T03:31:06;97178.47;;;15.20;100.00
36598;BME280;22607;49.550;11.940;2022-09-01T03:33:34;97189.81;;;15.14;100.00
36598;BME280;22607;49.550;11.940;2022-09-01T03:36:03;97186.97;;;15.16;100.00
36598;BME280;22607;49.550;11.940;2022-09-01T03:38:40;97192.69;;;15.19;100.00
36598;BME280;22607;49.550;11.940;2022-09-01T03:41:09;97187.03;;;15.22;100.00
36598;BME280;22607;49.550;11.940;2022-09-01T03:43:39;97184.97;;;15.18;100.00
36598;BME280;22607;49.550;11.940;2022-09-01T03:46:12;97187.63;;;15.18;100.00
36598;BME280;22607;49.550;11.940;2022-09-01T03:48:54;97185.16;;;15.16;100.00
36598;BME280;22607;49.550;11.940;2022-09-01T03:51:25;97191.59;;;15.07;100.00
36598;BME280;22607;49.550;11.940;2022-09-01T03:53:53;97190.97;;;15.05;100.00
36598;BME280;22607;49.550;11.940;2022-09-01T03:56:27;97192.41;;;15.07;100.00
36598;BME280;22607;49.550;11.940;2022-09-01T03:58:56;97188.50;;;15.03;100.00
36598;BME280;22607;49.550;11.940;2022-09-01T04:01:28;97185.63;;;14.98;100.00
36598;BME280;22607;49.550;11.940;2022-09-01T04:04:03;97185.00;;;14.96;100.00
36598;BME280;22607;49.550;11.940;2022-09-01T04:06:33;97189.00;;;14.85;100.00
36598;BME280;22607;49.550;11.940;2022-09-01T04:08:59;97191.03;;;14.83;100.00
36598;BME280;22607;49.550;11.940;2022-09-01T04:11:29;97204.19;;;14.76;100.00
36598;BME280;22607;49.550;11.940;2022-09-01T04:13:56;97198.16;;;14.67;100.00
36598;BME280;22607;49.550;11.940;2022-09-01T04:16:26;97198.09;;;14.61;100.00
36598;BME280;22607;49.550;11.940;2022-09-01T04:19:14;97198.69;;;14.56;100.00
36598;BME280;22607;49.550;11.940;2022-09-01T04:21:47;97201.88;;;14.51;100.00
36598;BME280;22607;49.550;11.940;2022-09-01T04:24:16;97212.75;;;14.41;100.00
36598;BME280;22607;49.550;11.940;2022-09-01T04:26:46;97206.28;;;14.44;100.00
36598;BME280;22607;49.550;11.940;2022-09-01T04:29:15;97204.25;;;14.46;100.00
36598;BME280;22607;49.550;11.940;2022-09-01T04:31:44;97210.13;;;14.41;100.00
36598;BME280;22607;49.550;11.940;2022-09-01T04:34:14;97216.03;;;14.43;100.00
36598;BME280;22607;49.550;11.940;2022-09-01T04:36:44;97217.28;;;14.48;100.00
36598;BME280;22607;49.550;11.940;2022-09-01T04:39:13;97212.13;;;14.39;100.00
36598;BME280;22607;49.550;11.940;2022-09-01T04:41:42;97212.75;;;14.41;100.00
36598;BME280;22607;49.550;11.940;2022-09-01T04:44:13;97210.31;;;14.40;100.00
36598;BME280;22607;49.550;11.940;2022-09-01T04:46:42;97206.22;;;14.37;100.00
36598;BME280;22607;49.550;11.940;2022-09-01T04:49:13;97218.22;;;14.40;100.00
36598;BME280;22607;49.550;11.940;2022-09-01T04:51:48;97216.88;;;14.29;100.00
36598;BME280;22607;49.550;11.940;2022-09-01T04:54:20;97217.97;;;14.35;100.00
36598;BME280;22607;49.550;11.940;2022-09-01T04:56:49;97215.88;;;14.30;100.00
36598;BME280;22607;49.550;11.940;2022-09-01T04:59:20;97210.41;;;14.31;100.00
36598;BME280;22607;49.550;11.940;2022-09-01T05:01:47;97205.19;;;14.38;100.00
36598;BME280;22607;49.550;11.940;2022-09-01T05:04:19;97214.22;;;14.44;100.00
36598;BME280;22607;49.550;11.940;2022-09-01T05:06:48;97208.13;;;14.28;100.00
36598;BME280;22607;49.550;11.940;2022-09-01T05:09:18;97214.09;;;14.52;100.00
36598;BME280;22607;49.550;11.940;2022-09-01T05:11:45;97207.63;;;14.55;100.00
36598;BME280;22607;49.550;11.940;2022-09-01T05:14:14;97210.81;;;14.72;100.00
36598;BME280;22607;49.550;11.940;2022-09-01T05:16:44;97207.25;;;15.02;100.00
36598;BME280;22607;49.550;11.940;2022-09-01T05:19:12;97199.75;;;15.76;100.00
36598;BME280;22607;49.550;11.940;2022-09-01T05:21:45;97206.00;;;16.04;100.00
36598;BME280;22607;49.550;11.940;2022-09-01T05:24:14;97214.34;;;15.94;100.00
36598;BME280;22607;49.550;11.940;2022-09-01T05:26:42;97212.53;;;15.66;100.00
36598;BME280;22607;49.550;11.940;2022-09-01T05:29:10;97212.38;;;15.74;100.00
36598;BME280;22607;49.550;11.940;2022-09-01T05:31:40;97213.88;;;15.90;100.00
36598;BME280;22607;49.550;11.940;2022-09-01T05:34:08;97221.19;;;16.30;100.00
36598;BME280;22607;49.550;11.940;2022-09-01T05:36:37;97215.38;;;17.29;100.00
36598;BME280;22607;49.550;11.940;2022-09-01T05:39:07;97207.81;;;18.13;96.68
36598;BME280;22607;49.550;11.940;2022-09-01T05:41:37;97217.66;;;18.76;89.02
36598;BME280;22607;49.550;11.940;2022-09-01T05:44:06;97212.97;;;19.04;82.93
36598;BME280;22607;49.550;11.940;2022-09-01T05:46:35;97207.22;;;19.51;77.83
36598;BME280;22607;49.550;11.940;2022-09-01T05:49:04;97204.00;;;19.87;77.42
36598;BME280;22607;49.550;11.940;2022-09-01T05:51:32;97202.84;;;20.32;69.96
36598;BME280;22607;49.550;11.940;2022-09-01T05:54:18;97194.03;;;20.31;67.26
36598;BME280;22607;49.550;11.940;2022-09-01T05:56:47;97210.50;;;20.28;67.93
36598;BME280;22607;49.550;11.940;2022-09-01T05:59:15;97200.31;;;20.80;65.26
36598;BME280;22607;49.550;11.940;2022-09-01T06:01:51;97203.44;;;20.77;66.45
36598;BME280;22607;49.550;11.940;2022-09-01T06:04:19;97200.25;;;21.10;63.25
36598;BME280;22607;49.550;11.940;2022-09-01T06:06:47;97204.09;;;21.27;62.75
36598;BME280;22607;49.550;11.940;2022-09-01T06:09:41;97202.69;;;21.60;61.08
36598;BME280;22607;49.550;11.940;2022-09-01T06:12:09;97203.97;;;21.69;59.68
36598;BME280;22607;49.550;11.940;2022-09-01T06:14:44;97199.28;;;21.88;58.34
36598;BME280;22607;49.550;11.940;2022-09-01T06:17:11;97207.44;;;21.82;59.32
36598;BME280;22607;49.550;11.940;2022-09-01T06:19:42;97210.31;;;21.92;57.85
36598;BME280;22607;49.550;11.940;2022-09-01T06:22:10;97202.28;;;21.92;58.30
36598;BME280;22607;49.550;11.940;2022-09-01T06:24:37;97210.13;;;22.23;56.21
36598;BME280;22607;49.550;11.940;2022-09-01T06:27:08;97203.75;;;22.70;53.26
36598;BME280;22607;49.550;11.940;2022-09-01T06:29:38;97197.22;;;22.95;53.96
36598;BME280;22607;49.550;11.940;2022-09-01T06:32:06;97208.31;;;22.87;52.88
36598;BME280;22607;49.550;11.940;2022-09-01T06:34:39;97212.53;;;22.83;52.64
36598;BME280;22607;49.550;11.940;2022-09-01T06:37:11;97210.16;;;22.69;52.66
36598;BME280;22607;49.550;11.940;2022-09-01T06:39:38;97202.72;;;23.05;52.43
36598;BME280;22607;49.550;11.940;2022-09-01T06:42:05;97205.47;;;23.11;52.13
36598;BME280;22607;49.550;11.940;2022-09-01T06:44:34;97214.53;;;22.58;52.22
36598;BME280;22607;49.550;11.940;2022-09-01T06:47:06;97209.88;;;22.53;51.92
36598;BME280;22607;49.550;11.940;2022-09-01T06:49:34;97215.81;;;22.55;53.76
36598;BME280;22607;49.550;11.940;2022-09-01T06:52:03;97215.81;;;22.55;54.46
36598;BME280;22607;49.550;11.940;2022-09-01T06:54:30;97212.69;;;22.17;55.02
36598;BME280;22607;49.550;11.940;2022-09-01T06:57:02;97218.19;;;22.40;53.78
36598;BME280;22607;49.550;11.940;2022-09-01T06:59:49;97213.38;;;22.54;52.92
36598;BME280;22607;49.550;11.940;2022-09-01T07:02:20;97220.38;;;22.43;53.62
36598;BME280;22607;49.550;11.940;2022-09-01T07:05:06;97216.50;;;22.63;53.07
36598;BME280;22607;49.550;11.940;2022-09-01T07:07:33;97225.69;;;22.84;51.37
36598;BME280;22607;49.550;11.940;2022-09-01T07:10:22;97221.63;;;22.81;51.37
36598;BME280;22607;49.550;11.940;2022-09-01T07:12:51;97219.72;;;22.65;52.26
36598;BME280;22607;49.550;11.940;2022-09-01T07:15:41;97218.34;;;22.79;52.31
36598;BME280;22607;49.550;11.940;2022-09-01T07:18:29;97221.34;;;22.83;51.72
36598;BME280;22607;49.550;11.940;2022-09-01T07:20:57;97221.47;;;22.30;52.16
36598;BME280;22607;49.550;11.940;2022-09-01T07:23:33;97226.91;;;22.06;53.17
36598;BME280;22607;49.550;11.940;2022-09-01T07:26:20;97226.13;;;22.35;54.02
36598;BME280;22607;49.550;11.940;2022-09-01T07:28:52;97231.03;;;22.26;53.81
36598;BME280;22607;49.550;11.940;2022-09-01T07:31:29;97223.69;;;22.62;52.12
36598;BME280;22607;49.550;11.940;2022-09-01T07:34:17;97218.53;;;23.07;51.90
36598;BME280;22607;49.550;11.940;2022-09-01T07:37:04;97221.59;;;23.50;51.30
36598;BME280;22607;49.550;11.940;2022-09-01T07:39:51;97212.03;;;23.99;51.05
36598;BME280;22607;49.550;11.940;2022-09-01T07:42:19;97213.81;;;24.10;49.45
36598;BME280;22607;49.550;11.940;2022-09-01T07:45:08;97213.84;;;24.16;48.74
36598;BME280;22607;49.550;11.940;2022-09-01T07:47:52;97214.72;;;23.99;49.12
36598;BME280;22607;49.550;11.940;2022-09-01T07:50:19;97217.78;;;23.85;49.46
36598;BME280;22607;49.550;11.940;2022-09-01T07:53:05;97222.34;;;23.45;49.35
36598;BME280;22607;49.550;11.940;2022-09-01T07:55:33;97228.25;;;23.30;48.67
36598;BME280;22607;49.550;11.940;2022-09-01T07:58:00;97221.94;;;23.19;50.08
36598;BME280;22607;49.550;11.940;2022-09-01T08:00:27;97218.84;;;23.28;49.56
36598;BME280;22607;49.550;11.940;2022-09-01T08:02:57;97226.81;;;23.05;51.01
36598;BME280;22607;49.550;11.940;2022-09-01T08:05:24;97224.38;;;23.38;48.83
36598;BME280;22607;49.550;11.940;2022-09-01T08:07:52;97223.88;;;23.58;49.08
36598;BME280;22607;49.550;11.940;2022-09-01T08:10:19;97225.00;;;23.63;48.79
36598;BME280;22607;49.550;11.940;2022-09-01T08:12:46;97217.13;;;23.78;48.92
36598;BME280;22607;49.550;11.940;2022-09-01T08:15:22;97224.66;;;24.21;48.25
36598;BME280;22607;49.550;11.940;2022-09-01T08:18:08;97219.16;;;24.10;48.12
36598;BME280;22607;49.550;11.940;2022-09-01T08:20:37;97218.16;;;23.94;47.89
36598;BME280;22607;49.550;11.940;2022-09-01T08:23:05;97213.84;;;24.65;47.72
36598;BME280;22607;49.550;11.940;2022-09-01T08:25:35;97230.84;;;24.76;46.65
36598;BME280;22607;49.550;11.940;2022-09-01T08:28:02;97220.97;;;24.82;46.01
36598;BME280;22607;49.550;11.940;2022-09-01T08:30:30;97223.81;;;24.43;44.97
36598;BME280;22607;49.550;11.940;2022-09-01T08:33:00;97230.78;;;24.16;46.18
36598;BME280;22607;49.550;11.940;2022-09-01T08:35:37;97238.00;;;24.16;46.07
36598;BME280;22607;49.550;11.940;2022-09-01T08:38:04;97232.31;;;23.90;46.64
36598;BME280;22607;49.550;11.940;2022-09-01T08:40:31;97228.50;;;24.30;46.72
36598;BME280;22607;49.550;11.940;2022-09-01T08:43:15;97228.31;;;23.92;45.93
36598;BME280;22607;49.550;11.940;2022-09-01T08:45:54;97227.09;;;24.22;46.92
36598;BME280;22607;49.550;11.940;2022-09-01T08:48:37;97228.91;;;24.17;45.09
36598;BME280;22607;49.550;11.940;2022-09-01T08:51:38;97225.38;;;24.38;45.60
36598;BME280;22607;49.550;11.940;2022-09-01T08:54:23;97228.50;;;24.30;45.77
36598;BME280;22607;49.550;11.940;2022-09-01T08:57:01;97223.72;;;24.87;45.44
36598;BME280;22607;49.550;11.940;2022-09-01T08:59:30;97220.41;;;24.80;44.67
36598;BME280;22607;49.550;11.940;2022-09-01T09:02:20;97214.59;;;25.69;43.48
36598;BME280;22607;49.550;11.940;2022-09-01T09:05:09;97221.22;;;25.51;42.58
36598;BME280;22607;49.550;11.940;2022-09-01T09:13:08;97223.19;;;25.23;41.21
36598;BME280;22607;49.550;11.940;2022-09-01T09:15:51;97229.28;;;24.53;43.67
36598;BME280;22607;49.550;11.940;2022-09-01T09:18:41;97239.03;;;23.70;45.58
36598;BME280;22607;49.550;11.940;2022-09-01T09:21:29;97228.59;;;23.17;46.19
36598;BME280;22607;49.550;11.940;2022-09-01T09:24:14;97239.78;;;22.79;47.48
36598;BME280;22607;49.550;11.940;2022-09-01T09:26:57;97245.50;;;22.42;48.27
36598;BME280;22607;49.550;11.940;2022-09-01T09:29:27;97242.81;;;22.13;49.20
36598;BME280;22607;49.550;11.940;2022-09-01T09:32:06;97245.72;;;22.11;50.43
36598;BME280;22607;49.550;11.940;2022-09-01T09:34:49;97236.06;;;22.22;48.99
36598;BME280;22607;49.550;11.940;2022-09-01T09:47:56;97243.13;;;21.87;49.96
36598;BME280;22607;49.550;11.940;2022-09-01T09:50:27;97249.97;;;21.59;50.85
36598;BME280;22607;49.550;11.940;2022-09-01T09:55:53;97242.53;;;21.73;51.12
36598;BME280;22607;49.550;11.940;2022-09-01T09:58:25;97240.22;;;21.77;51.46
36598;BME280;22607;49.550;11.940;2022-09-01T10:01:05;97241.59;;;21.92;50.67
36598;BME280;22607;49.550;11.940;2022-09-01T10:03:40;97239.41;;;22.17;50.46
36598;BME280;22607;49.550;11.940;2022-09-01T10:06:13;97241.81;;;22.02;49.71
36598;BME280;22607;49.550;11.940;2022-09-01T10:08:44;97241.81;;;22.02;49.88
36598;BME280;22607;49.550;11.940;2022-09-01T10:11:26;97239.50;;;21.94;49.40
36598;BME280;22607;49.550;11.940;2022-09-01T10:14:04;97246.38;;;21.77;50.95
36598;BME280;22607;49.550;11.940;2022-09-01T10:16:35;97239.56;;;22.11;49.46
36598;BME280;22607;49.550;11.940;2022-09-01T10:19:05;97231.78;;;22.09;50.17
36598;BME280;22607;49.550;11.940;2022-09-01T10:21:42;97234.25;;;22.69;48.06
36598;BME280;22607;49.550;11.940;2022-09-01T10:24:18;97235.88;;;22.70;47.81
36598;BME280;22607;49.550;11.940;2022-09-01T10:27:04;97215.34;;;23.27;46.66
36598;BME280;22607;49.550;11.940;2022-09-01T10:29:42;97225.34;;;23.15;47.28
36598;BME280;22607;49.550;11.940;2022-09-01T10:32:20;97226.75;;;23.00;48.15
36598;BME280;22607;49.550;11.940;2022-09-01T10:35:12;97231.19;;;22.77;47.61
36598;BME280;22607;49.550;11.940;2022-09-01T10:37:44;97230.59;;;22.46;48.14
36598;BME280;22607;49.550;11.940;2022-09-01T10:40:19;97227.00;;;22.40;48.17
36598;BME280;22607;49.550;11.940;2022-09-01T10:42:58;97222.34;;;22.48;48.31
36598;BME280;22607;49.550;11.940;2022-09-01T10:53:45;97217.00;;;23.28;46.20
36598;BME280;22607;49.550;11.940;2022-09-01T10:56:25;97220.13;;;23.59;45.79
36598;BME280;22607;49.550;11.940;2022-09-01T11:07:31;97212.59;;;23.22;44.64
36598;BME280;22607;49.550;11.940;2022-09-01T11:15:42;97199.44;;;25.10;41.90
36598;BME280;22607;49.550;11.940;2022-09-01T11:18:24;97201.66;;;25.18;42.37
36598;BME280;22607;49.550;11.940;2022-09-01T11:20:53;97200.63;;;24.59;41.76
36598;BME280;22607;49.550;11.940;2022-09-01T11:23:26;97201.69;;;23.85;43.01
36598;BME280;22607;49.550;11.940;2022-09-01T11:26:00;97200.22;;;23.55;43.65
36598;BME280;22607;49.550;11.940;2022-09-01T11:28:45;97196.91;;;24.10;41.99
36598;BME280;22607;49.550;11.940;2022-09-01T11:31:25;97196.50;;;23.79;41.62
36598;BME280;22607;49.550;11.940;2022-09-01T11:34:08;97190.09;;;23.57;43.04
36598;BME280;22607;49.550;11.940;2022-09-01T11:42:16;97181.22;;;23.00;44.25
36598;BME280;22607;49.550;11.940;2022-09-01T11:44:51;97190.22;;;22.94;44.05
36598;BME280;22607;49.550;11.940;2022-09-01T11:47:30;97189.31;;;22.71;45.34
36598;BME280;22607;49.550;11.940;2022-09-01T11:50:01;97187.69;;;22.70;46.40
36598;BME280;22607;49.550;11.940;2022-09-01T11:52:30;97197.34;;;22.71;44.73
36598;BME280;22607;49.550;11.940;2022-09-01T11:55:00;97191.41;;;22.69;44.54
36598;BME280;22607;49.550;11.940;2022-09-01T11:57:31;97196.09;;;22.62;45.15
36598;BME280;22607;49.550;11.940;2022-09-01T12:00:01;97190.69;;;22.45;43.34
36598;BME280;22607;49.550;11.940;2022-09-01T12:02:32;97189.47;;;22.64;44.87
36598;BME280;22607;49.550;11.940;2022-09-01T12:05:22;97186.56;;;22.83;45.48
36598;BME280;22607;49.550;11.940;2022-09-01T12:07:50;97186.75;;;22.76;44.69
36598;BME280;22607;49.550;11.940;2022-09-01T12:10:36;97187.69;;;22.87;44.34
36598;BME280;22607;49.550;11.940;2022-09-01T12:13:09;97187.78;;;22.75;44.54
36598;BME280;22607;49.550;11.940;2022-09-01T12:15:39;97188.50;;;22.88;44.20
36598;BME280;22607;49.550;11.940;2022-09-01T12:18:32;97189.47;;;23.16;42.96
36598;BME280;22607;49.550;11.940;2022-09-01T12:21:01;97189.50;;;22.99;43.32
36598;BME280;22607;49.550;11.940;2022-09-01T12:23:30;97181.47;;;23.55;43.27
36598;BME280;22607;49.550;11.940;2022-09-01T12:26:11;97176.44;;;23.81;41.50
36598;BME280;22607;49.550;11.940;2022-09-01T12:28:39;97166.88;;;23.91;41.89
36598;BME280;22607;49.550;11.940;2022-09-01T12:31:15;97173.13;;;24.19;41.91
36598;BME280;22607;49.550;11.940;2022-09-01T12:33:43;97169.69;;;24.01;41.70
36598;BME280;22607;49.550;11.940;2022-09-01T12:38:46;97162.34;;;23.91;40.81
36598;BME280;22607;49.550;11.940;2022-09-01T12:41:30;97167.38;;;23.43;41.18
36598;BME280;22607;49.550;11.940;2022-09-01T12:44:28;97165.75;;;23.86;40.16
36598;BME280;22607;49.550;11.940;2022-09-01T12:46:59;97160.25;;;24.21;41.22
36598;BME280;22607;49.550;11.940;2022-09-01T12:49:46;97163.00;;;24.04;39.81
36598;BME280;22607;49.550;11.940;2022-09-01T12:57:37;97161.16;;;23.82;41.12
36598;BME280;22607;49.550;11.940;2022-09-01T13:05:37;97159.97;;;23.50;42.35
36598;BME280;22607;49.550;11.940;2022-09-01T13:08:15;97158.72;;;23.58;40.78
36598;BME280;22607;49.550;11.940;2022-09-01T13:10:51;97161.09;;;23.54;41.40
36598;BME280;22607;49.550;11.940;2022-09-01T13:13:20;97164.53;;;23.72;42.00
36598;BME280;22607;49.550;11.940;2022-09-01T13:15:51;97170.25;;;23.19;41.52
36598;BME280;22607;49.550;11.940;2022-09-01T13:18:20;97157.91;;;23.35;41.05
36598;BME280;22607;49.550;11.940;2022-09-01T13:20:49;97155.03;;;23.42;40.46
36598;BME280;22607;49.550;11.940;2022-09-01T13:23:16;97154.72;;;23.38;40.67
36598;BME280;22607;49.550;11.940;2022-09-01T13:25:43;97153.47;;;23.46;41.49
36598;BME280;22607;49.550;11.940;2022-09-01T13:28:10;97150.31;;;23.49;41.61
36598;BME280;22607;49.550;11.940;2022-09-01T13:30:37;97158.84;;;23.68;40.67
36598;BME280;22607;49.550;11.940;2022-09-01T13:33:04;97163.25;;;23.35;39.70
36598;BME280;22607;49.550;11.940;2022-09-01T13:35:49;97154.84;;;23.49;41.54
36598;BME280;22607;49.550;11.940;2022-09-01T13:38:17;97151.25;;;23.60;39.44
36598;BME280;22607;49.550;11.940;2022-09-01T13:40:45;97151.00;;;23.84;40.36
36598;BME280;22607;49.550;11.940;2022-09-01T13:43:14;97149.16;;;23.45;39.98
36598;BME280;22607;49.550;11.940;2022-09-01T13:45:41;97153.34;;;23.36;39.94
36598;BME280;22607;49.550;11.940;2022-09-01T13:48:11;97154.03;;;23.48;39.33
36598;BME280;22607;49.550;11.940;2022-09-01T13:50:44;97144.56;;;23.63;39.24
36598;BME280;22607;49.550;11.940;2022-09-01T13:53:31;97144.50;;;23.35;40.11
36598;BME280;22607;49.550;11.940;2022-09-01T13:55:58;97154.25;;;23.24;41.01
36598;BME280;22607;49.550;11.940;2022-09-01T13:58:24;97146.75;;;23.66;39.17
36598;BME280;22607;49.550;11.940;2022-09-01T14:00:51;97141.25;;;23.55;40.46
36598;BME280;22607;49.550;11.940;2022-09-01T14:03:21;97147.75;;;23.20;38.32
36598;BME280;22607;49.550;11.940;2022-09-01T14:05:49;97148.63;;;23.65;38.28
36598;BME280;22607;49.550;11.940;2022-09-01T14:08:18;97145.94;;;23.43;39.11
36598;BME280;22607;49.550;11.940;2022-09-01T14:10:48;97145.44;;;23.46;37.43
36598;BME280;22607;49.550;11.940;2022-09-01T14:13:18;97150.44;;;23.20;38.52
36598;BME280;22607;49.550;11.940;2022-09-01T14:15:46;97148.88;;;23.41;37.80
36598;BME280;22607;49.550;11.940;2022-09-01T14:18:14;97142.38;;;23.20;38.09